Time;durP1;ratioP1;P1;durP2;ratioP2;P2;SDS_P1;SDS_P2;PMS_P1;PMS_P2;Temp;Humidity;BMP_temperature;BMP_pressure;BME280_temperature;BME280_humidity;BME280_pressure;Samples;Min_cycle;Max_cycle;Signal;HPM_P1;HPM_P2
2021/10/20 00:00:33;;;;;;;20.70;16.50;;;;;;;8.38;89.34;96076.44;5034895;28;20483;-85
2021/10/20 00:03:01;;;;;;;26.10;17.57;;;;;;;8.35;89.42;96076.63;5035287;28;20447;-85
2021/10/20 00:05:28;;;;;;;24.33;18.27;;;;;;;8.39;89.24;96080.78;5035374;28;20435;-85
2021/10/20 00:07:55;;;;;;;25.20;16.37;;;;;;;8.46;89.26;96078.66;5035037;28;20884;-85
2021/10/20 00:10:22;;;;;;;30.43;19.03;;;;;;;8.16;89.06;96081.19;5034806;28;20522;-85
2021/10/20 00:12:51;;;;;;;26.60;19.57;;;;;;;8.13;89.50;96078.75;5034683;28;20507;-84
2021/10/20 00:15:21;;;;;;;26.10;18.40;;;;;;;8.18;89.16;96085.41;5034986;28;20782;-85
2021/10/20 00:17:49;;;;;;;25.13;17.03;;;;;;;8.08;89.96;96085.06;5034843;28;20447;-85
2021/10/20 00:20:21;;;;;;;22.93;17.00;;;;;;;8.15;90.70;96072.53;5015954;28;20445;-85
2021/10/20 00:22:48;;;;;;;26.30;18.50;;;;;;;8.16;90.21;96070.75;5034943;28;20461;-85
2021/10/20 00:25:16;;;;;;;24.67;17.60;;;;;;;8.20;90.00;96073.09;5034667;28;20839;-85
2021/10/20 00:27:44;;;;;;;21.40;16.43;;;;;;;8.20;90.71;96072.25;5034895;28;20450;-85
2021/10/20 00:30:13;;;;;;;29.93;19.50;;;;;;;8.28;90.37;96072.66;5034977;28;20467;-85
2021/10/20 00:32:40;;;;;;;26.00;17.90;;;;;;;8.32;90.02;96071.53;5016400;28;20488;-85
2021/10/20 00:35:08;;;;;;;32.17;18.37;;;;;;;8.35;89.78;96074.00;5034862;28;20455;-85
2021/10/20 00:37:36;;;;;;;25.60;17.60;;;;;;;8.38;89.48;96066.88;5034355;28;20542;-85
2021/10/20 00:40:05;;;;;;;27.03;18.13;;;;;;;8.40;89.43;96066.78;5034284;28;20806;-85
2021/10/20 00:42:31;;;;;;;27.33;19.60;;;;;;;8.40;89.49;96071.16;5034519;28;20822;-85
2021/10/20 00:45:01;;;;;;;29.63;19.87;;;;;;;8.43;89.15;96077.06;5034234;28;20443;-85
2021/10/20 00:47:29;;;;;;;25.50;18.20;;;;;;;8.48;89.20;96075.00;5034138;28;20450;-85
2021/10/20 00:49:57;;;;;;;28.50;18.83;;;;;;;8.51;88.84;96069.59;5034246;28;20478;-85
2021/10/20 00:52:26;;;;;;;26.80;18.37;;;;;;;8.49;88.94;96073.25;5033843;28;20493;-84
2021/10/20 00:54:56;;;;;;;27.93;18.07;;;;;;;8.41;88.90;96063.22;5033967;28;20955;-84
2021/10/20 00:57:26;;;;;;;26.57;16.73;;;;;;;8.38;89.74;96074.72;5034382;28;20443;-84
2021/10/20 00:59:55;;;;;;;21.53;16.37;;;;;;;8.30;89.82;96068.19;5033967;28;20447;-84
2021/10/20 01:02:22;;;;;;;23.07;15.97;;;;;;;8.31;89.43;96062.84;5033774;28;20442;-84
2021/10/20 01:04:50;;;;;;;24.03;16.33;;;;;;;8.29;89.91;96066.50;5033790;28;20957;-85
2021/10/20 01:07:17;;;;;;;20.77;16.03;;;;;;;8.32;90.24;96066.31;5033431;28;20944;-84
2021/10/20 01:09:45;;;;;;;23.07;15.90;;;;;;;8.31;89.77;96067.25;5033743;28;20455;-85
2021/10/20 01:12:13;;;;;;;25.60;18.23;;;;;;;8.29;89.75;96062.09;5033142;28;20474;-85
2021/10/20 01:14:41;;;;;;;25.17;16.30;;;;;;;8.28;89.84;96051.75;5034090;28;20458;-85
2021/10/20 01:17:08;;;;;;;25.17;16.30;;;;;;;8.28;89.77;96060.41;5033658;28;20448;-85
2021/10/20 01:19:36;;;;;;;22.57;16.20;;;;;;;8.25;90.01;96051.91;5033438;28;20451;-85
2021/10/20 01:22:05;;;;;;;27.17;17.07;;;;;;;8.25;89.83;96051.91;5033526;28;20478;-85
2021/10/20 01:24:32;;;;;;;22.60;16.87;;;;;;;8.23;90.06;96059.00;5033924;28;20467;-85
2021/10/20 01:26:59;;;;;;;18.47;14.40;;;;;;;8.19;89.69;96049.66;5033570;28;20453;-85
2021/10/20 01:29:26;;;;;;;24.50;15.03;;;;;;;8.08;90.48;96047.63;5033546;28;20448;-85
2021/10/20 01:31:55;;;;;;;24.17;15.43;;;;;;;8.14;90.48;96049.09;5032970;28;20453;-85
2021/10/20 01:34:22;;;;;;;21.67;16.43;;;;;;;8.11;90.21;96052.72;5033184;28;20447;-85
2021/10/20 01:36:50;;;;;;;20.57;16.07;;;;;;;8.20;90.30;96046.94;5033524;28;20447;-85
2021/10/20 01:39:20;;;;;;;20.80;15.50;;;;;;;8.23;90.18;96057.22;5033173;28;20534;-85
2021/10/20 01:41:48;;;;;;;25.50;16.67;;;;;;;8.22;89.89;96052.09;5033037;28;20454;-85
2021/10/20 01:44:15;;;;;;;19.10;16.23;;;;;;;8.25;89.95;96057.16;5033465;28;20459;-85
2021/10/20 01:46:42;;;;;;;26.00;16.17;;;;;;;8.28;89.61;96052.56;5033109;28;20445;-85
2021/10/20 01:49:09;;;;;;;25.00;14.43;;;;;;;8.32;89.54;96059.31;5032838;28;20463;-85
2021/10/20 01:51:36;;;;;;;21.87;15.57;;;;;;;8.34;89.34;96054.88;5033420;28;20455;-85
2021/10/20 01:54:03;;;;;;;22.80;16.07;;;;;;;8.35;89.02;96061.78;5032671;28;20490;-84
2021/10/20 01:56:32;;;;;;;23.03;14.60;;;;;;;8.37;88.88;96051.22;5032769;28;20450;-85
2021/10/20 01:58:58;;;;;;;21.60;14.90;;;;;;;8.40;88.82;96058.94;5033440;28;20439;-85
2021/10/20 02:01:26;;;;;;;21.77;15.43;;;;;;;8.38;89.03;96060.75;5032805;28;20959;-85
2021/10/20 02:03:53;;;;;;;19.17;14.63;;;;;;;8.30;89.07;96055.09;5032675;28;20971;-85
2021/10/20 02:06:20;;;;;;;20.50;14.37;;;;;;;8.15;89.48;96062.06;5032926;28;20526;-84
2021/10/20 02:08:49;;;;;;;21.60;14.20;;;;;;;8.08;89.55;96058.94;5032937;28;20530;-85
2021/10/20 02:11:19;;;;;;;18.27;15.20;;;;;;;8.00;89.58;96049.84;5032653;28;20453;-85
2021/10/20 02:13:47;;;;;;;21.30;16.93;;;;;;;7.97;90.29;96053.47;5032541;28;20999;-85
2021/10/20 02:16:14;;;;;;;23.27;16.00;;;;;;;7.87;90.85;96047.09;5032929;28;20447;-84
2021/10/20 02:18:41;;;;;;;22.20;16.90;;;;;;;7.87;90.53;96052.31;5032731;28;20457;-84
2021/10/20 02:21:12;;;;;;;24.10;16.50;;;;;;;7.87;91.10;96049.69;5032461;28;20561;-85
2021/10/20 02:23:39;;;;;;;22.80;16.27;;;;;;;7.83;91.15;96050.78;5031960;28;20453;-85
2021/10/20 02:26:06;;;;;;;19.27;14.63;;;;;;;7.78;91.40;96044.97;5032678;28;20451;-85
2021/10/20 02:28:33;;;;;;;19.03;14.10;;;;;;;7.76;91.18;96042.44;5032363;28;20451;-85
2021/10/20 02:31:01;;;;;;;24.03;15.37;;;;;;;7.80;91.34;96043.09;5032527;28;20541;-85
2021/10/20 02:33:28;;;;;;;27.43;16.70;;;;;;;7.77;91.38;96051.13;5032401;28;20482;-85
2021/10/20 02:35:55;;;;;;;20.70;15.80;;;;;;;7.74;91.19;96049.50;5032398;28;20453;-84
2021/10/20 02:38:22;;;;;;;17.77;12.70;;;;;;;7.57;91.94;96038.31;5031948;28;20449;-85
2021/10/20 02:40:50;;;;;;;18.53;14.13;;;;;;;7.57;92.44;96048.78;5032212;28;20799;-85
2021/10/20 02:43:18;;;;;;;21.00;14.50;;;;;;;7.50;92.40;96037.78;5032557;28;20439;-84
2021/10/20 02:45:45;;;;;;;23.30;14.93;;;;;;;7.45;93.12;96040.66;5032385;28;20454;-85
2021/10/20 02:48:13;;;;;;;21.40;15.40;;;;;;;7.35;93.38;96049.91;5032088;28;20814;-84
2021/10/20 02:50:40;;;;;;;18.20;13.80;;;;;;;7.23;93.95;96047.97;5032074;28;20451;-84
2021/10/20 02:53:07;;;;;;;20.53;14.90;;;;;;;7.24;94.34;96047.03;5032033;28;20491;-84
2021/10/20 02:55:35;;;;;;;17.03;13.00;;;;;;;7.26;94.66;96039.13;5032278;28;20443;-84
2021/10/20 02:58:02;;;;;;;23.87;15.50;;;;;;;7.23;94.49;96041.88;4997722;28;20899;-84
2021/10/20 03:00:29;;;;;;;18.87;14.00;;;;;;;7.25;94.26;96046.13;5031987;28;20959;-85
2021/10/20 03:02:56;;;;;;;26.60;15.83;;;;;;;7.30;94.08;96046.72;5031859;28;20998;-85
2021/10/20 03:05:25;;;;;;;22.93;14.97;;;;;;;7.45;93.71;96048.50;5031936;28;20455;-85
2021/10/20 03:07:54;;;;;;;23.03;15.00;;;;;;;7.21;92.92;96049.78;5032232;28;20442;-84
2021/10/20 03:10:21;;;;;;;24.63;16.00;;;;;;;7.10;93.62;96050.38;5032201;28;20981;-85
2021/10/20 03:12:48;;;;;;;24.53;17.73;;;;;;;7.16;92.84;96041.38;5031856;28;20500;-85
2021/10/20 03:15:15;;;;;;;28.20;18.30;;;;;;;7.14;92.31;96049.28;5013423;28;20475;-85
2021/10/20 03:17:42;;;;;;;27.70;17.97;;;;;;;7.12;92.03;96050.28;5032214;28;20818;-85
2021/10/20 03:20:10;;;;;;;29.43;20.27;;;;;;;7.17;92.16;96037.84;4997090;28;20442;-85
2021/10/20 03:22:41;;;;;;;28.13;19.23;;;;;;;7.14;92.33;96043.22;5031995;28;20457;-85
2021/10/20 03:25:09;;;;;;;24.70;19.03;;;;;;;7.23;92.60;96034.91;5031815;28;20451;-85
2021/10/20 03:27:41;;;;;;;22.80;17.67;;;;;;;7.23;92.71;96037.53;5032003;28;20446;-84
2021/10/20 03:30:09;;;;;;;24.63;15.37;;;;;;;7.16;93.37;96028.31;5031856;28;20501;-85
2021/10/20 03:32:36;;;;;;;23.23;15.70;;;;;;;7.09;94.57;96034.78;5031821;28;20442;-84
2021/10/20 03:35:04;;;;;;;23.70;16.30;;;;;;;7.11;95.26;96036.41;4998353;28;20447;-84
2021/10/20 03:37:30;;;;;;;24.80;14.30;;;;;;;7.14;95.76;96031.00;5002431;28;20856;-80
2021/10/20 03:39:59;;;;;;;23.63;17.25;;;;;;;7.20;96.55;96031.59;5035220;28;20429;-81
2021/10/20 03:42:26;;;;;;;21.37;14.70;;;;;;;7.29;98.13;96026.75;5036613;28;20200;-85
2021/10/20 03:44:53;;;;;;;23.03;17.20;;;;;;;7.26;97.28;96026.09;5036478;28;20803;-84
2021/10/20 03:47:20;;;;;;;22.80;17.60;;;;;;;7.31;96.60;96040.56;5036244;28;20442;-83
2021/10/20 03:53:08;;;;;;;22.53;14.80;;;;;;;7.26;95.48;96033.91;5029018;28;20583;-86
2021/10/20 03:55:37;;;;;;;23.50;17.87;;;;;;;7.29;95.90;96026.75;5016578;28;20792;-84
2021/10/20 03:58:04;;;;;;;22.90;16.03;;;;;;;7.27;95.52;96038.22;5027338;28;20445;-84
2021/10/20 04:00:31;;;;;;;22.00;14.90;;;;;;;7.26;95.92;96024.31;5036185;28;20478;-84
2021/10/20 04:02:58;;;;;;;27.60;17.53;;;;;;;7.19;94.95;96029.91;5036356;28;20474;-83
2021/10/20 04:05:25;;;;;;;33.60;21.53;;;;;;;6.75;94.31;96035.72;5021702;28;20443;-84
2021/10/20 04:07:53;;;;;;;35.30;23.40;;;;;;;6.77;93.86;96042.53;5016529;28;20447;-84
2021/10/20 04:10:22;;;;;;;39.70;24.07;;;;;;;6.30;95.29;96044.91;5016012;28;20455;-84
2021/10/20 04:12:52;;;;;;;38.40;24.70;;;;;;;6.34;96.31;96041.22;5016829;28;20452;-86
2021/10/20 04:15:20;;;;;;;47.10;26.90;;;;;;;6.43;96.00;96047.78;4982292;28;20446;-84
2021/10/20 04:17:48;;;;;;;38.10;24.97;;;;;;;6.48;96.50;96045.78;5016246;28;20437;-83
2021/10/20 04:20:16;;;;;;;40.50;25.73;;;;;;;6.59;96.10;96043.47;5016212;28;20451;-86
2021/10/20 04:22:43;;;;;;;40.60;24.60;;;;;;;6.44;97.43;96042.47;5016168;28;20432;-86
2021/10/20 04:31:55;;;;;;;47.13;25.77;;;;;;;6.72;96.38;96043.69;5014520;28;20438;-84
2021/10/20 04:34:22;;;;;;;31.50;22.63;;;;;;;6.85;95.94;96044.75;5015966;28;20482;-86
2021/10/20 04:36:49;;;;;;;37.80;23.47;;;;;;;6.96;95.03;96052.03;5015698;28;20443;-86
2021/10/20 04:39:16;;;;;;;38.47;21.93;;;;;;;7.06;94.71;96055.84;5015559;28;20440;-86
2021/10/20 04:41:43;;;;;;;31.20;21.77;;;;;;;7.10;93.18;96057.34;5015934;28;20448;-85
2021/10/20 04:44:10;;;;;;;40.00;23.00;;;;;;;7.19;92.75;96059.47;5015621;28;20456;-85
2021/10/20 04:46:37;;;;;;;34.72;22.35;;;;;;;7.27;92.69;96065.16;4987544;28;21219;-84
2021/10/20 04:49:05;;;;;;;40.20;21.73;;;;;;;7.37;91.89;96071.56;5015473;28;20615;-84
2021/10/20 04:51:32;;;;;;;30.40;21.90;;;;;;;7.41;91.76;96067.84;5013831;28;20443;-83
2021/10/20 04:53:59;;;;;;;34.63;21.53;;;;;;;7.44;91.14;96066.84;5034999;28;20473;-85
2021/10/20 04:56:26;;;;;;;44.93;23.00;;;;;;;7.47;90.76;96072.75;5034915;28;20542;-84
2021/10/20 04:58:53;;;;;;;52.33;21.90;;;;;;;7.47;90.16;96069.28;5034903;28;20998;-83
2021/10/20 05:01:20;;;;;;;47.47;24.17;;;;;;;7.40;90.34;96070.56;5000656;28;20203;-82
2021/10/20 05:03:47;;;;;;;42.20;25.50;;;;;;;7.34;90.39;96070.88;5025510;28;20456;-84
2021/10/20 05:06:15;;;;;;;40.60;24.70;;;;;;;7.34;90.12;96070.88;5014814;28;20443;-84
2021/10/20 05:08:42;;;;;;;53.53;25.73;;;;;;;7.41;91.23;96077.47;5015199;28;20468;-84
2021/10/20 05:11:09;;;;;;;46.37;26.07;;;;;;;7.51;91.25;96078.66;5026927;28;20454;-84
2021/10/20 05:13:36;;;;;;;61.13;26.87;;;;;;;7.73;90.97;96078.34;5016219;28;20489;-82
2021/10/20 05:16:03;;;;;;;74.43;25.83;;;;;;;7.95;89.86;96076.25;4998069;28;20447;-81
2021/10/20 05:18:30;;;;;;;55.03;23.30;;;;;;;8.25;89.25;96075.44;5034751;28;20491;-82
2021/10/20 05:20:57;;;;;;;38.27;22.77;;;;;;;8.61;86.83;96077.75;5006816;28;20460;-83
2021/10/20 05:23:26;;;;;;;42.83;22.00;;;;;;;9.11;85.86;96079.16;5034283;28;20435;-83
2021/10/20 05:25:52;;;;;;;47.47;21.97;;;;;;;9.66;83.44;96078.44;5033438;28;20436;-83
2021/10/20 05:28:19;;;;;;;53.83;21.60;;;;;;;10.15;81.02;96076.19;5033452;28;20982;-83
2021/10/20 05:30:46;;;;;;;28.07;17.30;;;;;;;10.70;78.14;96083.97;5033400;28;20453;-83
2021/10/20 05:33:13;;;;;;;23.37;14.70;;;;;;;11.14;75.89;96086.22;5033392;28;20469;-83
2021/10/20 05:35:40;;;;;;;17.93;13.30;;;;;;;11.49;74.82;96088.22;5014794;28;20786;-83
2021/10/20 05:38:07;;;;;;;21.83;14.03;;;;;;;11.83;72.46;96085.88;5032913;28;20529;-83
2021/10/20 05:40:36;;;;;;;20.40;14.00;;;;;;;11.99;71.74;96081.22;5033368;28;20526;-82
2021/10/20 05:43:03;;;;;;;17.00;12.40;;;;;;;12.15;71.58;96084.47;5033209;28;20449;-82
2021/10/20 05:45:30;;;;;;;16.60;13.47;;;;;;;12.34;71.98;96083.94;5033067;28;20878;-84
2021/10/20 05:47:57;;;;;;;26.77;13.80;;;;;;;12.64;69.70;96089.59;5033167;28;20454;-83
2021/10/20 05:50:24;;;;;;;21.93;14.67;;;;;;;12.89;69.36;96088.63;5032872;28;20450;-83
2021/10/20 05:52:51;;;;;;;22.90;12.60;;;;;;;13.10;68.08;96090.59;5033152;28;20450;-82
2021/10/20 05:55:18;;;;;;;17.17;12.30;;;;;;;13.26;66.98;96091.13;5033025;28;20478;-83
2021/10/20 05:57:46;;;;;;;20.23;12.70;;;;;;;13.33;67.15;96093.22;5032777;28;20458;-82
2021/10/20 06:00:14;;;;;;;14.30;12.47;;;;;;;13.47;66.27;96091.31;5032874;28;20454;-83
2021/10/20 06:02:41;;;;;;;19.27;12.50;;;;;;;13.49;66.50;96087.59;5032695;28;20450;-83
2021/10/20 06:05:09;;;;;;;16.77;12.60;;;;;;;13.55;65.65;96089.75;5032616;28;20455;-83
2021/10/20 06:07:40;;;;;;;17.77;11.13;;;;;;;13.61;65.52;96091.09;5032789;28;20950;-82
2021/10/20 06:10:08;;;;;;;15.97;11.80;;;;;;;13.42;66.04;96090.81;5032588;28;20816;-82
2021/10/20 06:12:34;;;;;;;15.80;13.20;;;;;;;13.47;65.65;96093.94;5032661;28;21064;-83
2021/10/20 06:15:04;;;;;;;26.40;12.67;;;;;;;13.36;66.12;96094.78;5032539;28;20863;-82
2021/10/20 06:17:31;;;;;;;19.73;13.10;;;;;;;13.46;66.01;96095.72;5032310;28;20504;-83
2021/10/20 06:19:58;;;;;;;14.93;12.07;;;;;;;13.51;66.13;96095.38;5032573;28;20447;-83
2021/10/20 06:22:25;;;;;;;17.93;12.50;;;;;;;13.61;65.96;96099.84;5032366;28;20490;-83
2021/10/20 06:24:52;;;;;;;19.27;13.97;;;;;;;13.72;65.43;96099.00;5032564;28;20935;-83
2021/10/20 06:27:19;;;;;;;23.93;14.07;;;;;;;13.14;67.10;96105.22;5032352;28;20439;-83
2021/10/20 06:29:46;;;;;;;25.30;18.90;;;;;;;13.01;67.89;96106.16;5032384;28;20443;-83
2021/10/20 06:32:15;;;;;;;33.03;21.50;;;;;;;12.44;70.62;96097.31;5032261;28;20486;-83
2021/10/20 06:34:42;;;;;;;38.27;24.77;;;;;;;12.04;72.70;96103.63;5032203;28;20490;-83
2021/10/20 06:37:09;;;;;;;45.77;23.83;;;;;;;11.95;74.02;96100.81;5032144;28;20448;-83
2021/10/20 06:39:36;;;;;;;31.60;20.33;;;;;;;12.18;74.36;96102.66;5032324;28;20534;-83
2021/10/20 06:42:03;;;;;;;23.73;19.23;;;;;;;12.15;74.29;96110.78;5013720;28;20450;-83
2021/10/20 06:44:29;;;;;;;29.83;19.23;;;;;;;12.10;74.48;96112.88;5032195;28;20447;-83
2021/10/20 06:46:56;;;;;;;26.30;18.03;;;;;;;12.29;76.01;96112.41;5032105;28;20439;-83
2021/10/20 06:49:25;;;;;;;27.30;18.80;;;;;;;12.55;74.10;96110.50;5032501;28;20439;-83
2021/10/20 06:51:52;;;;;;;29.63;20.50;;;;;;;12.71;72.65;96109.25;5032055;28;20457;-83
2021/10/20 06:54:19;;;;;;;26.97;20.30;;;;;;;12.55;72.68;96111.34;5031918;28;20486;-83
2021/10/20 06:56:46;;;;;;;49.17;30.60;;;;;;;12.27;74.29;96120.41;5032110;28;20447;-83
2021/10/20 06:59:13;;;;;;;41.17;25.30;;;;;;;12.19;75.34;96121.91;5031860;28;20815;-83
2021/10/20 07:01:40;;;;;;;36.10;25.00;;;;;;;12.32;74.78;96118.28;5032004;28;20483;-83
2021/10/20 07:04:07;;;;;;;34.53;24.23;;;;;;;12.50;73.65;96117.91;5013718;28;20521;-83
2021/10/20 07:06:37;;;;;;;33.87;22.73;;;;;;;11.93;73.41;96121.13;5031955;28;20446;-82
2021/10/20 07:09:05;;;;;;;32.03;23.00;;;;;;;11.99;74.31;96118.91;5032083;28;20855;-83
2021/10/20 07:11:32;;;;;;;37.13;23.50;;;;;;;12.14;74.74;96114.31;5036305;28;20443;-83
2021/10/20 07:13:59;;;;;;;50.83;25.23;;;;;;;12.31;74.41;96116.59;5035941;28;20815;-83
2021/10/20 07:16:26;;;;;;;40.97;22.37;;;;;;;12.30;73.66;96114.91;5036158;28;20541;-83
2021/10/20 07:18:53;;;;;;;40.43;24.33;;;;;;;12.24;73.82;96117.16;5017188;28;20439;-83
2021/10/20 07:21:20;;;;;;;43.80;24.27;;;;;;;12.36;74.31;96116.25;5035737;28;20476;-82
2021/10/20 07:23:48;;;;;;;34.93;23.07;;;;;;;12.52;74.67;96114.22;5035913;28;20469;-82
2021/10/20 07:26:20;;;;;;;36.77;22.10;;;;;;;12.60;71.68;96122.38;5035752;28;20541;-83
2021/10/20 07:28:47;;;;;;;30.03;21.17;;;;;;;12.67;72.78;96120.97;5035563;28;20447;-83
2021/10/20 07:31:14;;;;;;;39.27;22.40;;;;;;;12.75;73.54;96124.84;5035895;28;20446;-83
2021/10/20 07:33:41;;;;;;;33.30;23.70;;;;;;;12.80;72.52;96122.72;5035455;28;20534;-83
2021/10/20 07:36:08;;;;;;;40.30;22.97;;;;;;;12.82;72.59;96124.28;5035578;28;20486;-83
2021/10/20 07:38:36;;;;;;;35.50;21.87;;;;;;;12.89;72.76;96119.41;5035409;28;20465;-83
2021/10/20 07:41:04;;;;;;;33.13;22.57;;;;;;;13.05;72.29;96119.94;5035362;28;20510;-83
2021/10/20 07:43:33;;;;;;;54.47;23.03;;;;;;;13.24;72.16;96116.78;5016685;28;20497;-83
2021/10/20 07:46:00;;;;;;;32.67;22.37;;;;;;;13.33;71.43;96118.75;5035394;28;20516;-83
2021/10/20 07:48:27;;;;;;;36.23;23.73;;;;;;;13.40;71.15;96119.09;5035311;28;20465;-83
2021/10/20 07:50:54;;;;;;;24.60;20.50;;;;;;;13.50;70.59;96117.44;5035216;28;20457;-82
2021/10/20 07:53:21;;;;;;;33.40;22.60;;;;;;;13.61;71.11;96117.47;5034960;28;20883;-83
2021/10/20 07:55:48;;;;;;;32.67;21.60;;;;;;;13.64;70.03;96111.94;5016545;28;20485;-83
2021/10/20 07:58:16;;;;;;;35.20;21.90;;;;;;;13.69;69.77;96103.66;5016571;28;20806;-83
2021/10/20 08:00:43;;;;;;;28.60;20.97;;;;;;;13.84;69.53;96120.94;5035477;28;20442;-83
2021/10/20 08:03:10;;;;;;;34.07;24.07;;;;;;;13.81;69.80;96111.47;5035283;28;20451;-83
2021/10/20 08:05:37;;;;;;;31.80;22.07;;;;;;;13.51;70.02;96104.13;5035051;28;20449;-83
2021/10/20 08:08:07;;;;;;;33.67;22.67;;;;;;;13.57;71.34;96111.56;5034849;28;20465;-82
2021/10/20 08:10:34;;;;;;;33.23;22.40;;;;;;;13.44;71.52;96104.72;5035135;28;20450;-82
2021/10/20 08:13:01;;;;;;;37.47;22.37;;;;;;;13.25;71.96;96102.63;5034912;28;20447;-83
2021/10/20 08:15:30;;;;;;;33.50;23.77;;;;;;;13.16;71.00;96100.69;5034682;28;20490;-82
2021/10/20 08:18:01;;;;;;;37.30;22.10;;;;;;;13.10;72.36;96095.88;5034781;28;20538;-82
2021/10/20 08:20:31;;;;;;;33.20;22.17;;;;;;;13.11;72.55;96094.91;5034366;28;20788;-82
2021/10/20 08:22:58;;;;;;;32.60;22.67;;;;;;;13.26;72.30;96101.69;5033620;28;20479;-83
2021/10/20 08:25:26;;;;;;;31.97;22.30;;;;;;;13.42;71.60;96094.28;5034457;28;20526;-83
2021/10/20 08:27:53;;;;;;;32.27;21.97;;;;;;;13.61;70.78;96097.19;5034704;28;20450;-83
2021/10/20 08:30:20;;;;;;;44.07;23.53;;;;;;;13.84;70.11;96095.38;5034552;28;20827;-83
2021/10/20 08:32:54;;;;;;;29.87;22.10;;;;;;;14.11;69.17;96088.88;5034466;28;20448;-83
2021/10/20 08:35:21;;;;;;;30.80;20.93;;;;;;;14.40;68.65;96078.63;5015764;28;20479;-83
2021/10/20 08:37:50;;;;;;;33.73;22.70;;;;;;;14.67;68.06;96086.16;5034345;28;20812;-83
2021/10/20 08:40:17;;;;;;;35.53;23.37;;;;;;;14.57;66.21;96086.06;5034463;28;20939;-83
2021/10/20 08:42:45;;;;;;;33.87;24.43;;;;;;;14.62;67.16;96077.75;5015744;28;20451;-83
2021/10/20 08:45:12;;;;;;;31.00;21.57;;;;;;;14.54;66.95;96075.75;5034180;28;20458;-83
2021/10/20 08:47:42;;;;;;;37.63;21.63;;;;;;;14.68;66.66;96082.53;5034089;28;20449;-83
2021/10/20 08:50:11;;;;;;;33.97;21.83;;;;;;;14.81;66.71;96076.13;5034162;28;20447;-83
2021/10/20 08:52:38;;;;;;;29.33;22.00;;;;;;;14.37;66.22;96073.59;5033975;28;20455;-83
2021/10/20 08:55:06;;;;;;;30.00;22.10;;;;;;;14.44;67.89;96075.66;5034021;28;20474;-84
2021/10/20 08:57:34;;;;;;;34.13;22.40;;;;;;;14.35;67.34;96071.09;5015454;28;20478;-83
2021/10/20 09:00:05;;;;;;;34.43;22.63;;;;;;;14.37;68.16;96063.03;5033752;28;20455;-83
2021/10/20 09:02:37;;;;;;;31.87;20.80;;;;;;;14.43;67.12;96062.56;5034488;28;20530;-83
2021/10/20 09:05:04;;;;;;;28.60;20.27;;;;;;;14.67;67.09;96057.91;5016180;28;20955;-83
2021/10/20 09:07:33;;;;;;;32.50;21.20;;;;;;;14.76;65.96;96057.19;5033672;28;20876;-83
2021/10/20 09:10:00;;;;;;;24.83;18.50;;;;;;;14.77;66.00;96060.66;5033646;28;20454;-83
2021/10/20 09:12:31;;;;;;;31.47;21.03;;;;;;;14.94;65.84;96048.66;5033515;28;20447;-83
2021/10/20 09:15:03;;;;;;;30.73;20.73;;;;;;;15.03;66.67;96053.19;5033577;28;20515;-83
2021/10/20 09:17:43;;;;;;;30.60;20.90;;;;;;;15.13;65.56;96047.00;5015357;28;20446;-83
2021/10/20 09:20:24;;;;;;;28.47;19.57;;;;;;;15.28;64.79;96042.22;5034014;28;20447;-83
2021/10/20 09:22:59;;;;;;;29.03;21.70;;;;;;;14.79;64.34;96049.00;5033641;28;20471;-83
2021/10/20 09:25:28;;;;;;;30.80;19.50;;;;;;;14.95;65.84;96045.06;5033278;28;20550;-84
2021/10/20 09:27:58;;;;;;;30.03;19.37;;;;;;;15.11;65.25;96053.41;5033288;28;20830;-84
2021/10/20 09:30:27;;;;;;;23.90;17.93;;;;;;;15.20;64.69;96044.69;5033476;28;20451;-83
2021/10/20 09:32:57;;;;;;;25.93;19.60;;;;;;;15.26;65.99;96041.50;5033111;28;20457;-83
2021/10/20 09:35:25;;;;;;;34.53;20.70;;;;;;;15.19;66.33;96037.72;5033034;28;20494;-81
2021/10/20 09:37:58;;;;;;;28.60;20.03;;;;;;;15.33;65.18;96032.09;5033760;28;20453;-82
2021/10/20 09:40:27;;;;;;;32.83;20.10;;;;;;;15.25;65.56;96029.25;5033336;28;20447;-82
2021/10/20 09:42:54;;;;;;;30.80;19.20;;;;;;;15.37;66.26;96033.50;5033090;28;20443;-82
2021/10/20 09:45:23;;;;;;;28.07;21.43;;;;;;;15.47;65.69;96034.38;5033280;28;20447;-82
2021/10/20 09:47:52;;;;;;;33.83;23.13;;;;;;;15.28;66.75;96029.00;5032804;28;20538;-82
2021/10/20 09:50:19;;;;;;;33.43;21.20;;;;;;;15.01;66.47;96026.88;5032820;28;20479;-82
2021/10/20 09:52:49;;;;;;;38.37;20.90;;;;;;;14.48;68.06;96023.44;5032897;28;20447;-82
2021/10/20 09:55:26;;;;;;;34.30;20.63;;;;;;;14.81;68.60;96012.72;5032912;28;20490;-82
2021/10/20 09:57:56;;;;;;;36.87;23.60;;;;;;;14.91;67.90;96015.41;5032870;28;20459;-82
2021/10/20 10:00:23;;;;;;;31.27;21.07;;;;;;;14.92;68.19;96018.88;5032768;28;20815;-81
2021/10/20 10:02:51;;;;;;;28.63;21.43;;;;;;;14.93;68.29;96017.91;5032742;28;20541;-82
2021/10/20 10:05:18;;;;;;;31.27;21.23;;;;;;;14.88;68.24;96010.38;5032738;28;20453;-82
2021/10/20 10:07:46;;;;;;;32.27;20.07;;;;;;;14.99;69.25;96006.81;5032562;28;20457;-82
2021/10/20 10:10:13;;;;;;;27.23;19.90;;;;;;;15.07;68.66;96009.69;4998221;28;20439;-82
2021/10/20 10:12:43;;;;;;;30.00;20.60;;;;;;;15.08;67.24;96004.25;5032795;28;20843;-83
2021/10/20 10:15:13;;;;;;;31.20;19.63;;;;;;;15.13;67.72;96009.16;5032428;28;21073;-83
2021/10/20 10:17:42;;;;;;;24.90;18.07;;;;;;;15.12;68.09;95997.75;5032428;28;20459;-83
2021/10/20 10:20:12;;;;;;;32.67;19.60;;;;;;;15.12;67.86;95997.75;5032857;28;20533;-83
2021/10/20 10:22:49;;;;;;;27.37;19.60;;;;;;;15.13;67.70;95995.94;5032326;28;20474;-83
2021/10/20 10:25:31;;;;;;;26.80;17.97;;;;;;;15.21;67.31;95990.00;5032518;28;20530;-84
2021/10/20 10:28:04;;;;;;;28.70;19.80;;;;;;;15.32;67.40;95988.09;5032334;28;20935;-84
2021/10/20 10:30:33;;;;;;;26.07;17.77;;;;;;;15.29;66.48;95977.78;5032530;28;20444;-84
2021/10/20 10:33:03;;;;;;;21.13;17.67;;;;;;;15.36;68.04;95976.28;5032463;28;20860;-84
2021/10/20 10:35:35;;;;;;;31.13;17.60;;;;;;;15.39;66.18;95968.09;5032192;28;20482;-84
2021/10/20 10:38:04;;;;;;;29.87;18.97;;;;;;;15.40;66.10;95972.41;5032334;28;20455;-83
2021/10/20 10:40:33;;;;;;;24.90;16.83;;;;;;;15.44;65.54;95951.81;5032403;28;20457;-83
2021/10/20 10:43:07;;;;;;;23.83;17.47;;;;;;;15.45;66.77;95959.63;5032606;28;20470;-83
2021/10/20 10:45:34;;;;;;;25.60;18.10;;;;;;;15.52;66.64;95953.78;5031776;28;21009;-83
2021/10/20 10:48:03;;;;;;;28.97;18.23;;;;;;;15.60;65.92;95959.25;5032375;28;20455;-84
2021/10/20 10:50:48;;;;;;;27.00;16.40;;;;;;;15.71;66.92;95943.31;5032610;28;20473;-84
2021/10/20 10:53:29;;;;;;;25.27;16.17;;;;;;;15.66;65.20;95938.41;5032228;28;20525;-83
2021/10/20 10:56:07;;;;;;;23.30;16.50;;;;;;;15.74;65.73;95937.75;5032159;28;20475;-83
2021/10/20 10:58:57;;;;;;;25.50;16.57;;;;;;;15.78;66.48;95933.84;5031944;28;20939;-84
2021/10/20 11:01:38;;;;;;;25.37;17.87;;;;;;;15.79;66.66;95933.69;5032219;28;20454;-83
2021/10/20 11:04:19;;;;;;;23.30;17.40;;;;;;;15.89;67.00;95932.88;5032300;28;20795;-84
2021/10/20 11:06:47;;;;;;;23.23;15.60;;;;;;;15.79;66.46;95928.41;5032038;28;20486;-83
2021/10/20 11:09:16;;;;;;;19.83;15.30;;;;;;;15.71;67.17;95917.69;5032066;28;20442;-83
2021/10/20 11:11:47;;;;;;;18.50;15.37;;;;;;;15.79;67.14;95919.63;5032403;28;20463;-83
2021/10/20 11:14:17;;;;;;;19.80;14.77;;;;;;;15.89;65.70;95917.81;5032277;28;20939;-83
2021/10/20 11:16:47;;;;;;;21.20;14.90;;;;;;;15.94;66.75;95909.50;5031555;28;20866;-83
2021/10/20 11:19:15;;;;;;;21.23;14.93;;;;;;;15.95;66.46;95908.53;5031857;28;20453;-83
2021/10/20 11:21:42;;;;;;;28.80;16.07;;;;;;;15.97;67.37;95910.06;5031935;28;20563;-83
2021/10/20 11:24:09;;;;;;;24.13;16.23;;;;;;;16.00;67.25;95906.28;5031949;28;20445;-83
2021/10/20 11:26:37;;;;;;;22.03;15.07;;;;;;;15.84;66.70;95904.16;5031860;28;20465;-83
2021/10/20 11:29:08;;;;;;;39.27;15.90;;;;;;;15.90;67.55;95897.50;5031658;28;20451;-83
2021/10/20 11:31:39;;;;;;;24.50;14.30;;;;;;;16.03;66.73;95898.06;5031994;28;21033;-83
2021/10/20 11:34:16;;;;;;;20.13;13.87;;;;;;;16.02;66.56;95889.28;5031805;28;20450;-83
2021/10/20 11:36:43;;;;;;;22.00;14.97;;;;;;;15.78;67.20;95889.69;5031848;28;20485;-83